• Join FlightAware (Why Join?)
  • Login
  • US Flag 
02:25PM EDT


 

Airport Tracker/Info


-or-


 

Live Flight TrackerFlight Track Log ✈ VH-YNA ✈ 29-Jun-2013 ✈ YNTM - YPJT / JAD

Flight Track Log - Related Links

Times and Time Zones

All times are in EDT time to prevent confusion due to time zone crossing. See the VH-YNA flight status page for this flight to view local times or setup timezone preferences in your user account.

Time Position Orientation Groundspeed Altitude Reporting Facility
EDT Latitude Longitude Course Direction KTS MPH feet Rate Location/Type
08:37PM -31.7457 116.4552 266° West 134 154 2,500  Level Aus ATC (RADAR)
08:37PM -31.7471 116.4306 266° West 128 147 2,500 120 Level Aus ATC (RADAR)
08:38PM -31.7763 116.4088 212° Southwest 132 152 2,700  Climbing Aus ATC (RADAR)
08:39PM -31.8089 116.3850 212° Southwest 136 157 2,500 -120 Descending Aus ATC (RADAR)
08:40PM -31.8330 116.3688 210° Southwest 133 153 2,500  Level Aus ATC (RADAR)
08:41PM -31.8521 116.3570 208° Southwest 132 152 2,500  Level Aus ATC (RADAR)
08:41PM -31.8764 116.3402 211° Southwest 134 154 2,500  Level Aus ATC (RADAR)
08:42PM -31.9081 116.3184 210° Southwest 132 152 2,500  Level Aus ATC (RADAR)
08:43PM -31.9370 116.2982 211° Southwest 132 152 2,500 60 Level Aus ATC (RADAR)
08:44PM -31.9519 116.2858 215° Southwest 131 151 2,600 60 Climbing Aus ATC (RADAR)
08:44PM -31.9692 116.2719 214° Southwest 129 148 2,600  Level Aus ATC (RADAR)
08:45PM -31.9921 116.2542 213° Southwest 130 150 2,600 60 Level Aus ATC (RADAR)
08:46PM -32.0104 116.2414 211° Southwest 131 151 2,700  Climbing Aus ATC (RADAR)
08:46PM -32.0308 116.2325 200° South 134 154 2,600 -180 Descending Aus ATC (RADAR)
08:47PM -32.0567 116.2192 203° Southwest 137 158 2,500 -120 Descending Aus ATC (RADAR)
08:48PM -32.0764 116.2097 202° Southwest 132 152 2,500  Level Aus ATC (RADAR)
08:48PM -32.1026 116.1932 208° Southwest 130 150 2,500  Level Aus ATC (RADAR)
08:49PM -32.1310 116.1679 217° Southwest 124 143 2,500  Level Aus ATC (RADAR)
08:50PM -32.1499 116.1461 224° Southwest 124 143 2,500  Level Aus ATC (RADAR)
08:51PM -32.1647 116.1294 224° Southwest 124 143 2,500  Level Aus ATC (RADAR)
08:51PM -32.1841 116.1084 222° Southwest 126 145 2,500  Level Aus ATC (RADAR)
08:52PM -32.1980 116.0719 246° West 120 138 2,500 -180 Level Aus ATC (RADAR)
08:53PM -32.2014 116.0388 263° West 118 136 2,200 -540 Descending Aus ATC (RADAR)
08:54PM -32.1952 116.0003 281° West 112 129 1,600 -420 Descending Aus ATC (RADAR)
08:55PM -32.1803 115.9729 303° West 102 117 1,500 -180 Descending Aus ATC (RADAR)
08:56PM -32.1700 115.9540 303° West 108 124 1,400  Descending Aus ATC (RADAR)
08:57PM -32.1535 115.9321 312° West 104 120 1,500 60 Climbing Aus ATC (RADAR)
08:57PM -32.1334 115.9133 322° Northwest 110 127 1,500  Level Aus ATC (RADAR)
08:58PM -32.1176 115.8974 319° Northwest 110 127 1,500  Level Aus ATC (RADAR)
08:59PM -32.1053 115.8868 324° Northwest 108 124 1,500 -420 Level Aus ATC (RADAR)
08:59PM -32.0896 115.8797 339° North 103 119 1,100 -720 Descending Aus ATC (RADAR)